sensor_id;sensor_type;location;lat;lon;timestamp;pressure;altitude;pressure_sealevel;temperature;humidity
9935;BME280;5006;41.828;23.478;2022-08-25T00:00:55;90296.91;;;21.92;100.00
9935;BME280;5006;41.828;23.478;2022-08-25T00:02:03;90302.22;;;22.13;100.00
9935;BME280;5006;41.828;23.478;2022-08-25T00:03:10;90310.09;;;21.93;100.00
9935;BME280;5006;41.828;23.478;2022-08-25T00:04:16;90305.09;;;22.01;100.00
9935;BME280;5006;41.828;23.478;2022-08-25T00:05:27;90301.16;;;21.93;100.00
9935;BME280;5006;41.828;23.478;2022-08-25T00:06:32;90299.19;;;22.02;100.00
9935;BME280;5006;41.828;23.478;2022-08-25T00:07:38;90304.47;;;21.88;100.00
9935;BME280;5006;41.828;23.478;2022-08-25T00:08:43;90296.13;;;21.82;100.00
9935;BME280;5006;41.828;23.478;2022-08-25T00:09:49;90298.22;;;21.60;100.00
9935;BME280;5006;41.828;23.478;2022-08-25T00:10:55;90302.75;;;21.36;100.00
9935;BME280;5006;41.828;23.478;2022-08-25T00:12:03;90296.34;;;21.30;100.00
9935;BME280;5006;41.828;23.478;2022-08-25T00:13:08;90293.28;;;21.19;100.00
9935;BME280;5006;41.828;23.478;2022-08-25T00:14:15;90296.22;;;21.34;100.00
9935;BME280;5006;41.828;23.478;2022-08-25T00:15:22;90286.53;;;21.42;100.00
9935;BME280;5006;41.828;23.478;2022-08-25T00:16:28;90294.72;;;21.51;100.00
9935;BME280;5006;41.828;23.478;2022-08-25T00:17:34;90298.09;;;21.73;100.00
9935;BME280;5006;41.828;23.478;2022-08-25T00:18:40;90289.78;;;21.85;100.00
9935;BME280;5006;41.828;23.478;2022-08-25T00:19:48;90289.91;;;21.64;100.00
9935;BME280;5006;41.828;23.478;2022-08-25T00:20:54;90281.38;;;21.62;100.00
9935;BME280;5006;41.828;23.478;2022-08-25T00:21:59;90281.53;;;21.58;100.00
9935;BME280;5006;41.828;23.478;2022-08-25T00:23:06;90286.03;;;21.25;100.00
9935;BME280;5006;41.828;23.478;2022-08-25T00:24:12;90282.66;;;21.03;100.00
9935;BME280;5006;41.828;23.478;2022-08-25T00:25:18;90274.13;;;20.92;100.00
9935;BME280;5006;41.828;23.478;2022-08-25T00:26:24;90269.19;;;21.09;100.00
9935;BME280;5006;41.828;23.478;2022-08-25T00:27:31;90267.19;;;21.00;100.00
9935;BME280;5006;41.828;23.478;2022-08-25T00:28:36;90264.19;;;21.07;100.00
9935;BME280;5006;41.828;23.478;2022-08-25T00:29:42;90259.06;;;21.27;100.00
9935;BME280;5006;41.828;23.478;2022-08-25T00:30:47;90263.91;;;21.14;100.00
9935;BME280;5006;41.828;23.478;2022-08-25T00:31:54;90260.88;;;21.30;100.00
9935;BME280;5006;41.828;23.478;2022-08-25T00:32:59;90267.25;;;21.27;100.00
9935;BME280;5006;41.828;23.478;2022-08-25T00:34:07;90273.63;;;21.24;100.00
9935;BME280;5006;41.828;23.478;2022-08-25T00:35:12;90288.59;;;21.20;100.00
9935;BME280;5006;41.828;23.478;2022-08-25T00:36:19;90289.38;;;20.50;100.00
9935;BME280;5006;41.828;23.478;2022-08-25T00:37:24;90287.88;;;20.49;100.00
9935;BME280;5006;41.828;23.478;2022-08-25T00:38:29;90306.44;;;20.42;100.00
9935;BME280;5006;41.828;23.478;2022-08-25T00:39:35;90309.06;;;20.02;100.00
9935;BME280;5006;41.828;23.478;2022-08-25T00:40:41;90318.00;;;20.03;100.00
9935;BME280;5006;41.828;23.478;2022-08-25T00:41:50;90314.16;;;20.13;100.00
9935;BME280;5006;41.828;23.478;2022-08-25T00:42:56;90326.75;;;20.19;100.00
9935;BME280;5006;41.828;23.478;2022-08-25T00:44:03;90327.88;;;20.31;100.00
9935;BME280;5006;41.828;23.478;2022-08-25T00:45:10;90330.53;;;20.74;100.00
9935;BME280;5006;41.828;23.478;2022-08-25T00:46:19;90331.34;;;21.23;100.00
9935;BME280;5006;41.828;23.478;2022-08-25T00:47:25;90334.44;;;21.43;100.00
9935;BME280;5006;41.828;23.478;2022-08-25T00:48:30;90345.78;;;20.93;100.00
9935;BME280;5006;41.828;23.478;2022-08-25T00:49:39;90352.47;;;20.40;100.00
9935;BME280;5006;41.828;23.478;2022-08-25T00:50:45;90357.91;;;20.40;100.00
9935;BME280;5006;41.828;23.478;2022-08-25T00:51:55;90358.13;;;20.54;100.00
9935;BME280;5006;41.828;23.478;2022-08-25T00:53:03;90355.06;;;20.74;100.00
9935;BME280;5006;41.828;23.478;2022-08-25T00:54:13;90344.41;;;21.28;100.00
9935;BME280;5006;41.828;23.478;2022-08-25T00:55:21;90360.03;;;21.36;100.00
9935;BME280;5006;41.828;23.478;2022-08-25T00:56:28;90360.00;;;21.27;100.00
9935;BME280;5006;41.828;23.478;2022-08-25T00:57:37;90362.28;;;21.29;100.00
9935;BME280;5006;41.828;23.478;2022-08-25T00:58:45;90358.59;;;21.62;100.00
9935;BME280;5006;41.828;23.478;2022-08-25T00:59:50;90357.25;;;21.67;100.00
9935;BME280;5006;41.828;23.478;2022-08-25T01:00:56;90355.88;;;21.14;100.00
9935;BME280;5006;41.828;23.478;2022-08-25T01:02:02;90352.63;;;20.97;100.00
9935;BME280;5006;41.828;23.478;2022-08-25T01:03:08;90351.28;;;20.71;100.00
9935;BME280;5006;41.828;23.478;2022-08-25T01:04:13;90346.66;;;20.59;100.00
9935;BME280;5006;41.828;23.478;2022-08-25T01:05:19;90338.88;;;20.49;100.00
9935;BME280;5006;41.828;23.478;2022-08-25T01:06:26;90349.28;;;20.41;100.00
9935;BME280;5006;41.828;23.478;2022-08-25T01:07:32;90337.94;;;20.43;100.00
9935;BME280;5006;41.828;23.478;2022-08-25T01:08:37;90337.88;;;20.34;100.00
9935;BME280;5006;41.828;23.478;2022-08-25T01:09:45;90332.00;;;20.35;100.00
9935;BME280;5006;41.828;23.478;2022-08-25T01:10:51;90332.94;;;20.20;100.00
9935;BME280;5006;41.828;23.478;2022-08-25T01:11:57;90320.78;;;20.33;100.00
9935;BME280;5006;41.828;23.478;2022-08-25T01:13:08;90324.63;;;20.45;100.00
9935;BME280;5006;41.828;23.478;2022-08-25T01:14:17;90322.31;;;20.34;100.00
9935;BME280;5006;41.828;23.478;2022-08-25T01:15:23;90317.72;;;20.53;100.00
9935;BME280;5006;41.828;23.478;2022-08-25T01:16:29;90321.34;;;20.50;100.00
9935;BME280;5006;41.828;23.478;2022-08-25T01:17:43;90309.13;;;20.63;100.00
9935;BME280;5006;41.828;23.478;2022-08-25T01:18:54;90312.13;;;20.87;100.00
9935;BME280;5006;41.828;23.478;2022-08-25T01:19:59;90318.63;;;21.20;100.00
9935;BME280;5006;41.828;23.478;2022-08-25T01:21:07;90324.56;;;21.36;100.00
9935;BME280;5006;41.828;23.478;2022-08-25T01:22:12;90322.22;;;21.08;100.00
9935;BME280;5006;41.828;23.478;2022-08-25T01:23:18;90324.13;;;20.89;100.00
9935;BME280;5006;41.828;23.478;2022-08-25T01:24:28;90329.66;;;20.77;100.00
9935;BME280;5006;41.828;23.478;2022-08-25T01:25:42;90329.06;;;20.51;100.00
9935;BME280;5006;41.828;23.478;2022-08-25T01:26:49;90332.56;;;20.30;100.00
9935;BME280;5006;41.828;23.478;2022-08-25T01:27:55;90332.44;;;20.12;100.00
9935;BME280;5006;41.828;23.478;2022-08-25T01:29:05;90328.81;;;22.81;100.00
9935;BME280;5006;41.828;23.478;2022-08-25T01:30:29;90340.72;;;22.33;100.00
9935;BME280;5006;41.828;23.478;2022-08-25T01:31:34;90346.22;;;22.15;100.00
9935;BME280;5006;41.828;23.478;2022-08-25T01:32:41;90344.22;;;22.69;100.00
9935;BME280;5006;41.828;23.478;2022-08-25T01:33:46;90343.34;;;23.14;100.00
9935;BME280;5006;41.828;23.478;2022-08-25T01:34:51;90339.94;;;23.84;100.00
9935;BME280;5006;41.828;23.478;2022-08-25T01:35:57;90344.09;;;23.47;100.00
9935;BME280;5006;41.828;23.478;2022-08-25T01:37:04;90342.00;;;22.91;100.00
9935;BME280;5006;41.828;23.478;2022-08-25T01:38:09;90345.91;;;23.08;100.00
9935;BME280;5006;41.828;23.478;2022-08-25T01:39:14;90348.47;;;23.21;100.00
9935;BME280;5006;41.828;23.478;2022-08-25T01:40:20;90341.03;;;22.53;100.00
9935;BME280;5006;41.828;23.478;2022-08-25T01:41:40;90348.19;;;22.06;100.00
9935;BME280;5006;41.828;23.478;2022-08-25T01:42:53;90337.41;;;22.29;100.00
9935;BME280;5006;41.828;23.478;2022-08-25T01:44:03;90335.28;;;22.24;100.00
9935;BME280;5006;41.828;23.478;2022-08-25T01:45:10;90328.59;;;22.07;100.00
9935;BME280;5006;41.828;23.478;2022-08-25T01:46:16;90329.81;;;21.88;100.00
9935;BME280;5006;41.828;23.478;2022-08-25T01:47:21;90336.03;;;22.33;100.00
9935;BME280;5006;41.828;23.478;2022-08-25T01:48:28;90326.00;;;22.57;100.00
9935;BME280;5006;41.828;23.478;2022-08-25T01:49:33;90328.41;;;22.64;100.00
9935;BME280;5006;41.828;23.478;2022-08-25T01:50:40;90336.91;;;22.66;100.00
9935;BME280;5006;41.828;23.478;2022-08-25T01:51:51;90328.91;;;22.27;100.00
9935;BME280;5006;41.828;23.478;2022-08-25T01:53:02;90333.63;;;22.44;100.00
9935;BME280;5006;41.828;23.478;2022-08-25T01:54:09;90336.34;;;22.44;100.00
9935;BME280;5006;41.828;23.478;2022-08-25T01:55:14;90339.28;;;23.33;100.00
9935;BME280;5006;41.828;23.478;2022-08-25T01:56:20;90336.31;;;22.62;100.00
9935;BME280;5006;41.828;23.478;2022-08-25T01:57:25;90341.47;;;22.60;100.00
9935;BME280;5006;41.828;23.478;2022-08-25T01:58:34;90343.31;;;22.09;100.00
9935;BME280;5006;41.828;23.478;2022-08-25T01:59:40;90345.88;;;22.58;100.00
9935;BME280;5006;41.828;23.478;2022-08-25T02:00:45;90347.56;;;22.02;100.00
9935;BME280;5006;41.828;23.478;2022-08-25T02:01:52;90354.41;;;21.88;100.00
9935;BME280;5006;41.828;23.478;2022-08-25T02:02:56;90350.47;;;21.89;100.00
9935;BME280;5006;41.828;23.478;2022-08-25T02:04:03;90357.34;;;21.54;100.00
9935;BME280;5006;41.828;23.478;2022-08-25T02:05:10;90357.66;;;21.47;100.00
9935;BME280;5006;41.828;23.478;2022-08-25T02:06:18;90357.28;;;21.27;100.00
9935;BME280;5006;41.828;23.478;2022-08-25T02:07:23;90361.81;;;21.30;100.00
9935;BME280;5006;41.828;23.478;2022-08-25T02:08:31;90362.78;;;21.45;100.00
9935;BME280;5006;41.828;23.478;2022-08-25T02:09:36;90359.75;;;21.43;100.00
9935;BME280;5006;41.828;23.478;2022-08-25T02:10:42;90361.94;;;21.18;100.00
9935;BME280;5006;41.828;23.478;2022-08-25T02:11:47;90356.00;;;21.10;100.00
9935;BME280;5006;41.828;23.478;2022-08-25T02:12:54;90353.97;;;21.41;100.00
9935;BME280;5006;41.828;23.478;2022-08-25T02:13:59;90355.22;;;21.58;100.00
9935;BME280;5006;41.828;23.478;2022-08-25T02:15:06;90354.88;;;21.96;100.00
9935;BME280;5006;41.828;23.478;2022-08-25T02:16:17;90347.09;;;21.94;100.00
9935;BME280;5006;41.828;23.478;2022-08-25T02:17:24;90341.06;;;22.26;100.00
9935;BME280;5006;41.828;23.478;2022-08-25T02:18:30;90348.94;;;22.51;100.00
9935;BME280;5006;41.828;23.478;2022-08-25T02:19:35;90346.22;;;22.24;100.00
9935;BME280;5006;41.828;23.478;2022-08-25T02:20:40;90346.50;;;22.08;100.00
9935;BME280;5006;41.828;23.478;2022-08-25T02:21:46;90349.25;;;22.26;100.00
9935;BME280;5006;41.828;23.478;2022-08-25T02:22:52;90360.31;;;22.22;100.00
9935;BME280;5006;41.828;23.478;2022-08-25T02:23:59;90355.16;;;22.15;100.00
9935;BME280;5006;41.828;23.478;2022-08-25T02:25:05;90347.44;;;22.23;100.00
9935;BME280;5006;41.828;23.478;2022-08-25T02:26:11;90344.06;;;22.19;100.00
9935;BME280;5006;41.828;23.478;2022-08-25T02:27:22;90338.03;;;22.24;100.00
9935;BME280;5006;41.828;23.478;2022-08-25T02:28:27;90336.50;;;21.87;100.00
9935;BME280;5006;41.828;23.478;2022-08-25T02:29:33;90321.19;;;21.81;100.00
9935;BME280;5006;41.828;23.478;2022-08-25T02:30:40;90326.91;;;21.74;100.00
9935;BME280;5006;41.828;23.478;2022-08-25T02:31:47;90311.09;;;21.51;100.00
9935;BME280;5006;41.828;23.478;2022-08-25T02:32:52;90311.28;;;21.65;100.00
9935;BME280;5006;41.828;23.478;2022-08-25T02:33:58;90315.25;;;21.73;100.00
9935;BME280;5006;41.828;23.478;2022-08-25T02:35:04;90303.06;;;21.56;100.00
9935;BME280;5006;41.828;23.478;2022-08-25T02:36:11;90314.41;;;21.37;100.00
9935;BME280;5006;41.828;23.478;2022-08-25T02:37:16;90308.19;;;21.45;100.00
9935;BME280;5006;41.828;23.478;2022-08-25T02:38:22;90303.22;;;21.53;100.00
9935;BME280;5006;41.828;23.478;2022-08-25T02:39:29;90309.41;;;21.44;100.00
9935;BME280;5006;41.828;23.478;2022-08-25T02:40:34;90299.13;;;21.57;100.00
9935;BME280;5006;41.828;23.478;2022-08-25T02:41:40;90294.03;;;21.86;100.00
9935;BME280;5006;41.828;23.478;2022-08-25T02:42:46;90300.66;;;22.21;100.00
9935;BME280;5006;41.828;23.478;2022-08-25T02:43:51;90296.28;;;22.14;100.00
9935;BME280;5006;41.828;23.478;2022-08-25T02:44:58;90295.84;;;21.89;100.00
9935;BME280;5006;41.828;23.478;2022-08-25T02:46:03;90299.75;;;21.70;100.00
9935;BME280;5006;41.828;23.478;2022-08-25T02:47:10;90295.19;;;21.49;100.00
9935;BME280;5006;41.828;23.478;2022-08-25T02:48:14;90311.28;;;21.83;100.00
9935;BME280;5006;41.828;23.478;2022-08-25T02:49:20;90310.88;;;21.94;100.00
9935;BME280;5006;41.828;23.478;2022-08-25T02:50:26;90314.16;;;22.15;100.00
9935;BME280;5006;41.828;23.478;2022-08-25T02:51:32;90311.00;;;22.08;100.00
9935;BME280;5006;41.828;23.478;2022-08-25T02:52:39;90316.63;;;21.96;100.00
9935;BME280;5006;41.828;23.478;2022-08-25T02:53:44;90317.38;;;21.96;100.00
9935;BME280;5006;41.828;23.478;2022-08-25T02:54:53;90311.31;;;22.01;100.00
9935;BME280;5006;41.828;23.478;2022-08-25T02:55:59;90309.50;;;21.71;100.00
9935;BME280;5006;41.828;23.478;2022-08-25T02:57:04;90307.50;;;21.72;100.00
9935;BME280;5006;41.828;23.478;2022-08-25T02:58:09;90308.34;;;21.33;100.00
9935;BME280;5006;41.828;23.478;2022-08-25T02:59:15;90310.91;;;21.27;100.00
9935;BME280;5006;41.828;23.478;2022-08-25T03:00:22;90310.56;;;21.07;100.00
9935;BME280;5006;41.828;23.478;2022-08-25T03:01:28;90310.00;;;21.30;100.00
9935;BME280;5006;41.828;23.478;2022-08-25T03:02:35;90305.47;;;21.36;100.00
9935;BME280;5006;41.828;23.478;2022-08-25T03:03:42;90304.84;;;21.32;100.00
9935;BME280;5006;41.828;23.478;2022-08-25T03:04:48;90305.53;;;21.63;100.00
9935;BME280;5006;41.828;23.478;2022-08-25T03:05:54;90311.19;;;21.29;100.00
9935;BME280;5006;41.828;23.478;2022-08-25T03:07:00;90310.50;;;21.56;100.00
9935;BME280;5006;41.828;23.478;2022-08-25T03:08:06;90311.47;;;21.13;100.00
9935;BME280;5006;41.828;23.478;2022-08-25T03:09:13;90310.94;;;21.36;100.00
9935;BME280;5006;41.828;23.478;2022-08-25T03:10:19;90304.75;;;21.63;100.00
9935;BME280;5006;41.828;23.478;2022-08-25T03:11:26;90301.59;;;21.64;100.00
9935;BME280;5006;41.828;23.478;2022-08-25T03:12:31;90306.69;;;21.53;100.00
9935;BME280;5006;41.828;23.478;2022-08-25T03:13:37;90300.13;;;21.15;100.00
9935;BME280;5006;41.828;23.478;2022-08-25T03:14:42;90301.50;;;21.28;100.00
9935;BME280;5006;41.828;23.478;2022-08-25T03:15:48;90297.97;;;21.10;100.00
9935;BME280;5006;41.828;23.478;2022-08-25T03:16:52;90293.63;;;21.30;100.00
9935;BME280;5006;41.828;23.478;2022-08-25T03:17:58;90292.66;;;20.97;100.00
9935;BME280;5006;41.828;23.478;2022-08-25T03:19:04;90288.97;;;20.91;100.00
9935;BME280;5006;41.828;23.478;2022-08-25T03:20:10;90288.38;;;20.87;100.00
9935;BME280;5006;41.828;23.478;2022-08-25T03:21:16;90286.91;;;20.74;100.00
9935;BME280;5006;41.828;23.478;2022-08-25T03:22:22;90282.59;;;20.85;100.00
9935;BME280;5006;41.828;23.478;2022-08-25T03:23:26;90287.38;;;20.81;100.00
9935;BME280;5006;41.828;23.478;2022-08-25T03:24:32;90283.25;;;20.98;100.00
9935;BME280;5006;41.828;23.478;2022-08-25T03:25:39;90283.28;;;21.07;100.00
9935;BME280;5006;41.828;23.478;2022-08-25T03:27:03;90290.59;;;21.28;100.00
9935;BME280;5006;41.828;23.478;2022-08-25T03:28:09;90283.22;;;21.56;100.00
9935;BME280;5006;41.828;23.478;2022-08-25T03:29:14;90285.19;;;21.46;100.00
9935;BME280;5006;41.828;23.478;2022-08-25T03:30:20;90276.81;;;21.32;100.00
9935;BME280;5006;41.828;23.478;2022-08-25T03:31:25;90274.50;;;21.12;100.00
9935;BME280;5006;41.828;23.478;2022-08-25T03:32:31;90269.44;;;20.93;100.00
9935;BME280;5006;41.828;23.478;2022-08-25T03:33:36;90268.72;;;20.71;100.00
9935;BME280;5006;41.828;23.478;2022-08-25T03:34:42;90266.31;;;20.33;100.00
9935;BME280;5006;41.828;23.478;2022-08-25T03:35:48;90259.47;;;20.29;100.00
9935;BME280;5006;41.828;23.478;2022-08-25T03:36:54;90257.31;;;20.54;100.00
9935;BME280;5006;41.828;23.478;2022-08-25T03:38:00;90258.44;;;20.35;100.00
9935;BME280;5006;41.828;23.478;2022-08-25T03:39:05;90265.84;;;20.65;100.00
9935;BME280;5006;41.828;23.478;2022-08-25T03:40:13;90264.59;;;20.57;100.00
9935;BME280;5006;41.828;23.478;2022-08-25T03:41:23;90263.75;;;20.69;100.00
9935;BME280;5006;41.828;23.478;2022-08-25T03:42:30;90270.94;;;20.85;100.00
9935;BME280;5006;41.828;23.478;2022-08-25T03:43:35;90267.03;;;20.95;100.00
9935;BME280;5006;41.828;23.478;2022-08-25T03:44:43;90266.25;;;20.85;100.00
9935;BME280;5006;41.828;23.478;2022-08-25T03:45:48;90261.44;;;20.98;100.00
9935;BME280;5006;41.828;23.478;2022-08-25T03:46:53;90262.91;;;20.90;100.00
9935;BME280;5006;41.828;23.478;2022-08-25T03:47:59;90259.47;;;20.99;100.00
9935;BME280;5006;41.828;23.478;2022-08-25T03:49:06;90251.84;;;20.85;100.00
9935;BME280;5006;41.828;23.478;2022-08-25T03:50:14;90248.91;;;20.70;100.00
9935;BME280;5006;41.828;23.478;2022-08-25T03:51:21;90256.09;;;20.55;100.00
9935;BME280;5006;41.828;23.478;2022-08-25T03:52:27;90253.41;;;20.64;100.00
9935;BME280;5006;41.828;23.478;2022-08-25T03:53:32;90254.88;;;20.87;100.00
9935;BME280;5006;41.828;23.478;2022-08-25T03:54:38;90260.69;;;21.07;100.00
9935;BME280;5006;41.828;23.478;2022-08-25T03:55:43;90255.34;;;20.85;100.00
9935;BME280;5006;41.828;23.478;2022-08-25T03:56:50;90248.28;;;21.06;100.00
9935;BME280;5006;41.828;23.478;2022-08-25T03:57:55;90244.50;;;21.12;100.00
9935;BME280;5006;41.828;23.478;2022-08-25T03:59:02;90246.25;;;20.88;100.00
9935;BME280;5006;41.828;23.478;2022-08-25T04:00:09;90250.00;;;20.82;100.00
9935;BME280;5006;41.828;23.478;2022-08-25T04:01:16;90243.63;;;20.76;100.00
9935;BME280;5006;41.828;23.478;2022-08-25T04:02:22;90247.28;;;20.82;100.00
9935;BME280;5006;41.828;23.478;2022-08-25T04:03:28;90244.19;;;21.19;100.00
9935;BME280;5006;41.828;23.478;2022-08-25T04:04:34;90244.19;;;21.10;100.00
9935;BME280;5006;41.828;23.478;2022-08-25T04:05:38;90248.44;;;20.72;100.00
9935;BME280;5006;41.828;23.478;2022-08-25T04:06:44;90246.94;;;20.71;100.00
9935;BME280;5006;41.828;23.478;2022-08-25T04:07:50;90253.84;;;20.93;100.00
9935;BME280;5006;41.828;23.478;2022-08-25T04:08:56;90254.19;;;21.13;100.00
9935;BME280;5006;41.828;23.478;2022-08-25T04:10:02;90249.97;;;21.30;100.00
9935;BME280;5006;41.828;23.478;2022-08-25T04:11:10;90250.28;;;21.41;100.00
9935;BME280;5006;41.828;23.478;2022-08-25T04:12:17;90245.16;;;21.34;100.00
9935;BME280;5006;41.828;23.478;2022-08-25T04:13:23;90248.19;;;21.54;100.00
9935;BME280;5006;41.828;23.478;2022-08-25T04:14:29;90247.59;;;21.77;100.00
9935;BME280;5006;41.828;23.478;2022-08-25T04:15:34;90248.19;;;21.36;100.00
9935;BME280;5006;41.828;23.478;2022-08-25T04:16:40;90246.88;;;20.92;100.00
9935;BME280;5006;41.828;23.478;2022-08-25T04:17:45;90249.94;;;21.03;100.00
9935;BME280;5006;41.828;23.478;2022-08-25T04:18:52;90238.03;;;21.55;100.00
9935;BME280;5006;41.828;23.478;2022-08-25T04:19:58;90239.38;;;21.23;100.00
9935;BME280;5006;41.828;23.478;2022-08-25T04:21:06;90241.34;;;21.14;100.00
9935;BME280;5006;41.828;23.478;2022-08-25T04:22:12;90243.91;;;21.26;100.00
9935;BME280;5006;41.828;23.478;2022-08-25T04:23:18;90251.84;;;21.60;100.00
9935;BME280;5006;41.828;23.478;2022-08-25T04:24:23;90246.53;;;21.84;100.00
9935;BME280;5006;41.828;23.478;2022-08-25T04:25:29;90249.13;;;21.69;100.00
9935;BME280;5006;41.828;23.478;2022-08-25T04:26:38;90252.16;;;21.71;100.00
9935;BME280;5006;41.828;23.478;2022-08-25T04:27:45;90249.56;;;21.86;100.00
9935;BME280;5006;41.828;23.478;2022-08-25T04:28:51;90244.88;;;21.77;100.00
9935;BME280;5006;41.828;23.478;2022-08-25T04:29:56;90238.03;;;21.73;100.00
9935;BME280;5006;41.828;23.478;2022-08-25T04:31:05;90241.22;;;21.35;100.00
9935;BME280;5006;41.828;23.478;2022-08-25T04:32:11;90240.31;;;20.81;100.00
9935;BME280;5006;41.828;23.478;2022-08-25T04:33:17;90238.38;;;20.90;100.00
9935;BME280;5006;41.828;23.478;2022-08-25T04:34:24;90243.13;;;21.08;100.00
9935;BME280;5006;41.828;23.478;2022-08-25T04:35:29;90245.84;;;21.08;100.00
9935;BME280;5006;41.828;23.478;2022-08-25T04:36:35;90252.06;;;21.17;100.00
9935;BME280;5006;41.828;23.478;2022-08-25T04:37:40;90257.91;;;21.64;100.00
9935;BME280;5006;41.828;23.478;2022-08-25T04:38:47;90249.88;;;21.88;100.00
9935;BME280;5006;41.828;23.478;2022-08-25T04:39:53;90246.50;;;22.02;100.00
9935;BME280;5006;41.828;23.478;2022-08-25T04:41:00;90253.66;;;21.90;100.00
9935;BME280;5006;41.828;23.478;2022-08-25T04:42:06;90246.69;;;21.80;100.00
9935;BME280;5006;41.828;23.478;2022-08-25T04:43:13;90242.91;;;21.69;100.00
9935;BME280;5006;41.828;23.478;2022-08-25T04:44:19;90247.72;;;21.29;100.00
9935;BME280;5006;41.828;23.478;2022-08-25T04:45:24;90245.16;;;21.61;100.00
9935;BME280;5006;41.828;23.478;2022-08-25T04:46:32;90246.38;;;21.51;100.00
9935;BME280;5006;41.828;23.478;2022-08-25T04:47:38;90246.38;;;21.33;100.00
9935;BME280;5006;41.828;23.478;2022-08-25T04:48:44;90246.38;;;21.69;100.00
9935;BME280;5006;41.828;23.478;2022-08-25T04:49:49;90240.28;;;22.10;100.00
9935;BME280;5006;41.828;23.478;2022-08-25T04:50:54;90248.00;;;22.29;100.00
9935;BME280;5006;41.828;23.478;2022-08-25T04:51:59;90246.59;;;22.34;100.00
9935;BME280;5006;41.828;23.478;2022-08-25T04:53:05;90242.38;;;22.42;100.00
9935;BME280;5006;41.828;23.478;2022-08-25T04:54:14;90258.13;;;22.47;100.00
9935;BME280;5006;41.828;23.478;2022-08-25T04:55:24;90247.97;;;22.47;100.00
9935;BME280;5006;41.828;23.478;2022-08-25T04:56:31;90251.63;;;22.44;100.00
9935;BME280;5006;41.828;23.478;2022-08-25T04:57:36;90251.09;;;22.64;100.00
9935;BME280;5006;41.828;23.478;2022-08-25T04:58:44;90237.31;;;22.49;100.00
9935;BME280;5006;41.828;23.478;2022-08-25T04:59:50;90237.44;;;22.64;100.00
9935;BME280;5006;41.828;23.478;2022-08-25T05:01:00;90236.13;;;22.83;100.00
9935;BME280;5006;41.828;23.478;2022-08-25T05:02:05;90242.44;;;22.65;100.00
9935;BME280;5006;41.828;23.478;2022-08-25T05:03:11;90237.41;;;22.05;100.00
9935;BME280;5006;41.828;23.478;2022-08-25T05:04:20;90240.53;;;22.30;100.00
9935;BME280;5006;41.828;23.478;2022-08-25T05:05:26;90235.66;;;22.34;100.00
9935;BME280;5006;41.828;23.478;2022-08-25T05:06:31;90235.22;;;22.35;100.00
9935;BME280;5006;41.828;23.478;2022-08-25T05:07:37;90236.09;;;22.59;100.00
9935;BME280;5006;41.828;23.478;2022-08-25T05:08:41;90242.63;;;22.94;100.00
9935;BME280;5006;41.828;23.478;2022-08-25T05:09:47;90233.94;;;23.28;100.00
9935;BME280;5006;41.828;23.478;2022-08-25T05:10:53;90233.78;;;22.99;100.00
9935;BME280;5006;41.828;23.478;2022-08-25T05:12:00;90248.44;;;23.20;100.00
9935;BME280;5006;41.828;23.478;2022-08-25T05:13:06;90240.19;;;23.29;100.00
9935;BME280;5006;41.828;23.478;2022-08-25T05:14:13;90248.28;;;23.23;100.00
9935;BME280;5006;41.828;23.478;2022-08-25T05:15:21;90241.25;;;22.99;100.00
9935;BME280;5006;41.828;23.478;2022-08-25T05:16:45;90238.69;;;22.86;100.00
9935;BME280;5006;41.828;23.478;2022-08-25T05:17:51;90234.97;;;22.75;100.00
9935;BME280;5006;41.828;23.478;2022-08-25T05:18:56;90232.28;;;22.57;100.00
9935;BME280;5006;41.828;23.478;2022-08-25T05:20:02;90240.78;;;22.59;100.00
9935;BME280;5006;41.828;23.478;2022-08-25T05:21:08;90235.41;;;22.73;100.00
9935;BME280;5006;41.828;23.478;2022-08-25T05:22:15;90232.84;;;22.19;100.00
9935;BME280;5006;41.828;23.478;2022-08-25T05:23:21;90232.69;;;22.05;100.00
9935;BME280;5006;41.828;23.478;2022-08-25T05:24:26;90228.28;;;22.16;100.00
9935;BME280;5006;41.828;23.478;2022-08-25T05:25:32;90219.69;;;22.50;100.00
9935;BME280;5006;41.828;23.478;2022-08-25T05:26:37;90218.22;;;22.82;100.00
9935;BME280;5006;41.828;23.478;2022-08-25T05:27:44;90218.25;;;22.73;100.00
9935;BME280;5006;41.828;23.478;2022-08-25T05:28:50;90224.81;;;22.66;100.00
9935;BME280;5006;41.828;23.478;2022-08-25T05:29:58;90224.69;;;22.61;100.00
9935;BME280;5006;41.828;23.478;2022-08-25T05:31:03;90223.34;;;22.38;100.00
9935;BME280;5006;41.828;23.478;2022-08-25T05:32:09;90223.69;;;22.31;100.00
9935;BME280;5006;41.828;23.478;2022-08-25T05:33:15;90226.28;;;22.35;100.00
9935;BME280;5006;41.828;23.478;2022-08-25T05:34:20;90229.69;;;21.94;100.00
9935;BME280;5006;41.828;23.478;2022-08-25T05:35:25;90226.81;;;21.98;100.00
9935;BME280;5006;41.828;23.478;2022-08-25T05:36:31;90225.72;;;22.04;100.00
9935;BME280;5006;41.828;23.478;2022-08-25T05:37:37;90229.97;;;22.14;100.00
9935;BME280;5006;41.828;23.478;2022-08-25T05:38:42;90229.97;;;21.96;100.00
9935;BME280;5006;41.828;23.478;2022-08-25T05:39:48;90229.13;;;21.72;100.00
9935;BME280;5006;41.828;23.478;2022-08-25T05:40:56;90228.03;;;21.88;100.00
9935;BME280;5006;41.828;23.478;2022-08-25T05:42:03;90229.38;;;22.10;100.00
9935;BME280;5006;41.828;23.478;2022-08-25T05:43:08;90221.34;;;21.62;100.00
9935;BME280;5006;41.828;23.478;2022-08-25T05:44:13;90228.47;;;22.04;100.00
9935;BME280;5006;41.828;23.478;2022-08-25T05:45:21;90227.94;;;22.32;100.00
9935;BME280;5006;41.828;23.478;2022-08-25T05:46:26;90219.97;;;22.61;100.00
9935;BME280;5006;41.828;23.478;2022-08-25T05:47:32;90223.13;;;22.69;100.00
9935;BME280;5006;41.828;23.478;2022-08-25T05:48:38;90226.22;;;22.62;100.00
9935;BME280;5006;41.828;23.478;2022-08-25T05:49:43;90229.31;;;22.78;100.00
9935;BME280;5006;41.828;23.478;2022-08-25T05:50:52;90226.50;;;22.64;100.00
9935;BME280;5006;41.828;23.478;2022-08-25T05:51:58;90230.66;;;23.15;100.00
9935;BME280;5006;41.828;23.478;2022-08-25T05:53:04;90235.81;;;23.22;100.00